createdAt,value
2023-03-14T00:00:10.409Z,36.0830
2023-03-14T00:00:21.582Z,36.1000
2023-03-14T00:00:32.593Z,36.0830
2023-03-14T00:00:43.659Z,36.0660
2023-03-14T00:00:54.862Z,36.0880
2023-03-14T00:01:05.895Z,36.1070
2023-03-14T00:01:16.952Z,36.0880
2023-03-14T00:01:28.146Z,36.0770
2023-03-14T00:01:39.192Z,36.0600
2023-03-14T00:01:50.265Z,36.0660
2023-03-14T00:02:01.422Z,36.0720
2023-03-14T00:02:12.492Z,36.0880
2023-03-14T00:02:23.561Z,36.1000
2023-03-14T00:02:34.760Z,36.0880
2023-03-14T00:02:45.924Z,36.0720
2023-03-14T00:02:57.154Z,36.0600
2023-03-14T00:03:08.301Z,36.0830
2023-03-14T00:03:19.342Z,36.0940
2023-03-14T00:03:30.394Z,36.0830
2023-03-14T00:03:41.606Z,36.0660
2023-03-14T00:03:52.698Z,36.1120
2023-03-14T00:04:03.744Z,36.1180
2023-03-14T00:04:14.789Z,36.1070
2023-03-14T00:04:25.839Z,36.1070
2023-03-14T00:04:36.955Z,36.1120
2023-03-14T00:04:48.140Z,36.1240
2023-03-14T00:04:59.185Z,36.1070
2023-03-14T00:05:10.240Z,36.0970
2023-03-14T00:05:21.432Z,36.0800
2023-03-14T00:05:32.462Z,36.0860
2023-03-14T00:05:43.511Z,36.0970
2023-03-14T00:05:54.711Z,36.0970
2023-03-14T00:06:05.749Z,36.0940
2023-03-14T00:06:16.776Z,36.0940
2023-03-14T00:06:28.005Z,36.0830
2023-03-14T00:06:39.030Z,36.1000
2023-03-14T00:06:50.070Z,36.1000
2023-03-14T00:07:01.260Z,36.1000
2023-03-14T00:07:12.303Z,36.1290
2023-03-14T00:07:23.349Z,36.1240
2023-03-14T00:07:34.540Z,36.1290
2023-03-14T00:07:45.738Z,36.1350
2023-03-14T00:07:56.804Z,36.1410
2023-03-14T00:08:07.853Z,36.1460
2023-03-14T00:08:18.873Z,36.1520
2023-03-14T00:08:29.961Z,36.1630
2023-03-14T00:08:41.094Z,36.1520
2023-03-14T00:08:52.333Z,36.1520
2023-03-14T00:09:03.530Z,36.1460
2023-03-14T00:09:14.706Z,36.1690
2023-03-14T00:09:25.901Z,36.1750
2023-03-14T00:09:37.115Z,36.1750
2023-03-14T00:09:48.302Z,36.1630
2023-03-14T00:09:59.496Z,36.1870
2023-03-14T00:10:10.714Z,36.1580
2023-03-14T00:10:21.734Z,36.1580
2023-03-14T00:10:32.774Z,36.1690
2023-03-14T00:10:43.992Z,36.1630
2023-03-14T00:10:55.027Z,36.1690
2023-03-14T00:11:06.068Z,36.1690
2023-03-14T00:11:17.289Z,36.1290
2023-03-14T00:11:28.324Z,36.1630
2023-03-14T00:11:39.390Z,36.1630
2023-03-14T00:11:50.552Z,36.1930
2023-03-14T00:12:01.742Z,36.1800
2023-03-14T00:12:12.940Z,36.1750
2023-03-14T00:12:24.159Z,36.1750
2023-03-14T00:12:35.349Z,36.1800
2023-03-14T00:12:46.567Z,36.1800
2023-03-14T00:12:57.738Z,36.1930
2023-03-14T00:13:08.975Z,36.1870
2023-03-14T00:13:20.144Z,36.1800
2023-03-14T00:13:31.191Z,36.1750
2023-03-14T00:13:42.225Z,36.1690
2023-03-14T00:13:53.437Z,36.1630
2023-03-14T00:14:04.503Z,36.1800
2023-03-14T00:14:15.538Z,36.1870
2023-03-14T00:14:26.699Z,36.1990
2023-03-14T00:14:37.741Z,36.2160
2023-03-14T00:14:48.785Z,36.2270
2023-03-14T00:14:59.984Z,36.2270
2023-03-14T00:15:11.042Z,36.2100
2023-03-14T00:15:22.088Z,36.1990
2023-03-14T00:15:33.167Z,36.2040
2023-03-14T00:15:44.223Z,36.2040
2023-03-14T00:15:55.389Z,36.1990
2023-03-14T00:16:06.651Z,36.2100
2023-03-14T00:16:17.760Z,36.2500
2023-03-14T00:16:28.932Z,36.2440
2023-03-14T00:16:40.139Z,36.2550
2023-03-14T00:16:51.192Z,36.2680
2023-03-14T00:17:02.310Z,36.2680
2023-03-14T00:17:13.435Z,36.2550
2023-03-14T00:17:24.614Z,36.2960
2023-03-14T00:17:35.824Z,36.3080
2023-03-14T00:17:47.028Z,36.3080
2023-03-14T00:17:58.063Z,36.3200
2023-03-14T00:18:09.120Z,36.3080
2023-03-14T00:18:20.295Z,36.3080
2023-03-14T00:18:31.510Z,36.3020
2023-03-14T00:18:42.597Z,36.2850
2023-03-14T00:18:53.810Z,36.2910
2023-03-14T00:19:04.924Z,36.3020
2023-03-14T00:19:15.982Z,36.3080
2023-03-14T00:19:27.192Z,36.3080
2023-03-14T00:19:38.215Z,36.2910
2023-03-14T00:19:49.270Z,36.2850
2023-03-14T00:20:00.464Z,36.2790
2023-03-14T00:20:11.660Z,36.2910
2023-03-14T00:20:22.852Z,36.3190
2023-03-14T00:20:33.904Z,36.3190
2023-03-14T00:20:44.934Z,36.3240
2023-03-14T00:20:56.150Z,36.2960
2023-03-14T00:21:07.181Z,36.3020
2023-03-14T00:21:18.221Z,36.2960
2023-03-14T00:21:29.426Z,36.3080
2023-03-14T00:21:40.628Z,36.3020
2023-03-14T00:21:51.821Z,36.2910
2023-03-14T00:22:03.014Z,36.3130
2023-03-14T00:22:14.226Z,36.3190
2023-03-14T00:22:25.420Z,36.3300
2023-03-14T00:22:36.658Z,36.3190
2023-03-14T00:22:47.829Z,36.3080
2023-03-14T00:22:59.028Z,36.2740
2023-03-14T00:23:10.056Z,36.2790
2023-03-14T00:23:21.110Z,36.2750
2023-03-14T00:23:32.300Z,36.2640
2023-03-14T00:23:43.512Z,36.2470
2023-03-14T00:23:54.700Z,36.2530
2023-03-14T00:24:05.934Z,36.2170
2023-03-14T00:24:16.983Z,36.2290
2023-03-14T00:24:28.057Z,36.2360
2023-03-14T00:24:39.128Z,36.2750
2023-03-14T00:24:50.178Z,36.2750
2023-03-14T00:25:01.236Z,36.2640
2023-03-14T00:25:12.465Z,36.2700
2023-03-14T00:25:23.661Z,36.2920
2023-03-14T00:25:34.867Z,36.2980
2023-03-14T00:25:46.061Z,36.2640
2023-03-14T00:25:57.257Z,36.2470
2023-03-14T00:26:08.472Z,36.2360
2023-03-14T00:26:19.682Z,36.2640
2023-03-14T00:26:30.861Z,36.2790
2023-03-14T00:26:41.893Z,36.2960
2023-03-14T00:26:52.962Z,36.2680
2023-03-14T00:27:04.154Z,36.2740
2023-03-14T00:27:15.340Z,36.3020
2023-03-14T00:27:26.540Z,36.2960
2023-03-14T00:27:37.761Z,36.2850
2023-03-14T00:27:48.935Z,36.3080
2023-03-14T00:28:00.140Z,36.3080
2023-03-14T00:28:11.342Z,36.3190
2023-03-14T00:28:22.610Z,36.2850
2023-03-14T00:28:33.766Z,36.2850
2023-03-14T00:28:44.841Z,36.2740
2023-03-14T00:28:55.888Z,36.2610
2023-03-14T00:29:07.072Z,36.2440
2023-03-14T00:29:18.140Z,36.2320
2023-03-14T00:29:29.191Z,36.2320
2023-03-14T00:29:40.234Z,36.2440
2023-03-14T00:29:51.268Z,36.2270
2023-03-14T00:30:02.397Z,36.2160
2023-03-14T00:30:13.588Z,36.2060
2023-03-14T00:30:24.786Z,36.1610
2023-03-14T00:30:36.002Z,36.1370
2023-03-14T00:30:47.174Z,36.1290
2023-03-14T00:30:58.488Z,36.1190
2023-03-14T00:31:09.624Z,36.1190
2023-03-14T00:31:20.831Z,36.1080
2023-03-14T00:31:31.999Z,36.1250
2023-03-14T00:31:43.277Z,36.1400
2023-03-14T00:31:54.364Z,36.1550
2023-03-14T00:32:05.589Z,36.1480
2023-03-14T00:32:16.781Z,36.1310
2023-03-14T00:32:27.997Z,36.1310
2023-03-14T00:32:39.266Z,36.1140
2023-03-14T00:32:50.448Z,36.1140
2023-03-14T00:33:01.581Z,36.1310
2023-03-14T00:33:12.784Z,36.1310
2023-03-14T00:33:23.824Z,36.0970
2023-03-14T00:33:34.877Z,36.0920
2023-03-14T00:33:46.067Z,36.0660
2023-03-14T00:33:57.100Z,36.0540
2023-03-14T00:34:08.180Z,36.0370
2023-03-14T00:34:19.349Z,36.0430
2023-03-14T00:34:30.546Z,36.0490
2023-03-14T00:34:41.755Z,36.0450
2023-03-14T00:34:52.945Z,36.0390
2023-03-14T00:35:03.996Z,36.0170
2023-03-14T00:35:15.028Z,36.0110
2023-03-14T00:35:26.228Z,35.9940
2023-03-14T00:35:37.444Z,35.9940
2023-03-14T00:35:48.658Z,35.9940
2023-03-14T00:35:59.766Z,36.0050
2023-03-14T00:36:10.926Z,35.9940
2023-03-14T00:36:22.037Z,36.0000
2023-03-14T00:36:33.120Z,36.0170
2023-03-14T00:36:44.293Z,36.0110
2023-03-14T00:36:55.500Z,35.9940
2023-03-14T00:37:06.708Z,35.9760
2023-03-14T00:37:17.907Z,35.9640
2023-03-14T00:37:29.107Z,35.9590
2023-03-14T00:37:40.295Z,35.9640
2023-03-14T00:37:51.353Z,35.9470
2023-03-14T00:38:02.419Z,35.9470
2023-03-14T00:38:13.483Z,35.9360
2023-03-14T00:38:24.544Z,35.9360
2023-03-14T00:38:35.667Z,35.9470
2023-03-14T00:38:46.728Z,35.9510
2023-03-14T00:38:57.778Z,35.9160
2023-03-14T00:39:08.974Z,35.9160
2023-03-14T00:39:20.028Z,35.9050
2023-03-14T00:39:31.105Z,35.8940
2023-03-14T00:39:42.222Z,35.8820
2023-03-14T00:39:53.305Z,35.8580
2023-03-14T00:40:04.363Z,35.8500
2023-03-14T00:40:15.492Z,35.8580
2023-03-14T00:40:26.538Z,35.8580
2023-03-14T00:40:37.572Z,35.8440
2023-03-14T00:40:48.784Z,35.8330
2023-03-14T00:40:59.980Z,35.8470
2023-03-14T00:41:11.224Z,35.8530
2023-03-14T00:41:22.322Z,35.8580
2023-03-14T00:41:33.372Z,35.8240
2023-03-14T00:41:44.475Z,35.8190
2023-03-14T00:41:55.662Z,35.8190
2023-03-14T00:42:06.870Z,35.8240
2023-03-14T00:42:18.059Z,35.8190
2023-03-14T00:42:29.252Z,35.8020
2023-03-14T00:42:40.458Z,35.7910
2023-03-14T00:42:51.667Z,35.7780
2023-03-14T00:43:02.871Z,35.7640
2023-03-14T00:43:14.058Z,35.7810
2023-03-14T00:43:25.126Z,35.7640
2023-03-14T00:43:36.146Z,35.7400
2023-03-14T00:43:47.362Z,35.7230
2023-03-14T00:43:58.533Z,35.7230
2023-03-14T00:44:09.792Z,35.7210
2023-03-14T00:44:20.941Z,35.7100
2023-03-14T00:44:32.131Z,35.7050
2023-03-14T00:44:43.332Z,35.6970
2023-03-14T00:44:54.551Z,35.6860
2023-03-14T00:45:05.741Z,35.6750
2023-03-14T00:45:16.942Z,35.6580
2023-03-14T00:45:27.991Z,35.6240
2023-03-14T00:45:39.029Z,35.5950
2023-03-14T00:45:50.226Z,35.5720
2023-03-14T00:46:01.420Z,35.5950
2023-03-14T00:46:12.669Z,35.5780
2023-03-14T00:46:23.869Z,35.5860
2023-03-14T00:46:35.064Z,35.5460
2023-03-14T00:46:46.260Z,35.5340
2023-03-14T00:46:57.430Z,35.4990
2023-03-14T00:47:08.743Z,35.4770
2023-03-14T00:47:19.847Z,35.4880
2023-03-14T00:47:30.858Z,35.4710
2023-03-14T00:47:41.903Z,35.4540
2023-03-14T00:47:53.106Z,35.4480
2023-03-14T00:48:04.313Z,35.4540
2023-03-14T00:48:15.498Z,35.4430
2023-03-14T00:48:26.692Z,35.4320
2023-03-14T00:48:37.900Z,35.4260
2023-03-14T00:48:49.104Z,35.4080
2023-03-14T00:49:00.313Z,35.4080
2023-03-14T00:49:11.550Z,35.4080
2023-03-14T00:49:22.710Z,35.3800
2023-03-14T00:49:33.744Z,35.3630
2023-03-14T00:49:44.778Z,35.3470
2023-03-14T00:49:55.990Z,35.3460
2023-03-14T00:50:07.188Z,35.3270
2023-03-14T00:50:18.379Z,35.3390
2023-03-14T00:50:29.588Z,35.3390
2023-03-14T00:50:40.778Z,35.3520
2023-03-14T00:50:51.978Z,35.3460
2023-03-14T00:51:03.196Z,35.3330
2023-03-14T00:51:14.377Z,35.3330
2023-03-14T00:51:25.574Z,35.3220
2023-03-14T00:51:36.612Z,35.3110
2023-03-14T00:51:47.655Z,35.2880
2023-03-14T00:51:58.869Z,35.2590
2023-03-14T00:52:10.061Z,35.2590
2023-03-14T00:52:21.261Z,35.2560
2023-03-14T00:52:32.452Z,35.2500
2023-03-14T00:52:43.674Z,35.2470
2023-03-14T00:52:54.977Z,35.2470
2023-03-14T00:53:06.064Z,35.2360
2023-03-14T00:53:17.252Z,35.2420
2023-03-14T00:53:28.478Z,35.2270
2023-03-14T00:53:39.549Z,35.2040
2023-03-14T00:53:50.617Z,35.1930
2023-03-14T00:54:01.745Z,35.1930
2023-03-14T00:54:12.822Z,35.1980
2023-03-14T00:54:23.837Z,35.1860
2023-03-14T00:54:42.379Z,35.1860
2023-03-14T00:55:00.418Z,35.4260
2023-03-14T00:55:11.496Z,35.5090
2023-03-14T00:55:22.532Z,35.3370
2023-03-14T00:55:33.581Z,35.2790
2023-03-14T00:55:44.773Z,35.2340
2023-03-14T00:55:56.004Z,35.2230
2023-03-14T00:56:07.181Z,35.2230
2023-03-14T00:56:18.399Z,35.2020
2023-03-14T00:56:29.444Z,35.1910
2023-03-14T00:56:40.524Z,35.1670
2023-03-14T00:56:51.677Z,35.1450
2023-03-14T00:57:02.859Z,35.1390
2023-03-14T00:57:13.891Z,35.1450
2023-03-14T00:57:24.949Z,35.1170
2023-03-14T00:57:36.148Z,35.1170
2023-03-14T00:57:47.182Z,35.1170
2023-03-14T00:57:58.227Z,35.0930
2023-03-14T00:58:09.422Z,35.0820
2023-03-14T00:58:20.612Z,35.0990
2023-03-14T00:58:31.850Z,35.1050
2023-03-14T00:58:43.016Z,35.0930
2023-03-14T00:58:54.218Z,35.0850
2023-03-14T00:59:05.412Z,35.0730
2023-03-14T00:59:16.662Z,35.0790
2023-03-14T00:59:27.817Z,35.0730
2023-03-14T00:59:39.044Z,35.0610
2023-03-14T00:59:50.217Z,35.0210
2023-03-14T01:00:01.434Z,35.0270
2023-03-14T01:00:12.630Z,35.0160
2023-03-14T01:00:23.811Z,35.0050
2023-03-14T01:00:34.911Z,34.9870
2023-03-14T01:00:45.970Z,34.9580
2023-03-14T01:00:57.101Z,34.9700
2023-03-14T01:01:08.293Z,34.9580
2023-03-14T01:01:19.359Z,34.9640
2023-03-14T01:01:30.420Z,34.9640
2023-03-14T01:01:41.510Z,34.9470
2023-03-14T01:01:52.571Z,34.9420
2023-03-14T01:02:03.725Z,34.9490
2023-03-14T01:02:14.874Z,34.9530
2023-03-14T01:02:25.956Z,34.9530
2023-03-14T01:02:37.058Z,34.9470
2023-03-14T01:02:48.191Z,34.9360
2023-03-14T01:02:59.442Z,34.9300
2023-03-14T01:03:10.648Z,34.9190
2023-03-14T01:03:21.750Z,34.9160
2023-03-14T01:03:32.809Z,34.9380
2023-03-14T01:03:43.858Z,34.9270
2023-03-14T01:03:55.013Z,34.9110
2023-03-14T01:04:06.220Z,34.9110
2023-03-14T01:04:17.474Z,34.9110
2023-03-14T01:04:28.622Z,34.9160
2023-03-14T01:04:39.685Z,34.9220
2023-03-14T01:04:50.724Z,34.9110
2023-03-14T01:05:01.900Z,34.9110
2023-03-14T01:05:13.125Z,34.9380
2023-03-14T01:05:24.135Z,34.9160
2023-03-14T01:05:35.185Z,34.9110
2023-03-14T01:05:46.380Z,34.8990
2023-03-14T01:05:57.422Z,34.8940
2023-03-14T01:06:08.477Z,34.8770
2023-03-14T01:06:19.685Z,34.8600
2023-03-14T01:06:30.697Z,34.8530
2023-03-14T01:06:41.744Z,34.8310
2023-03-14T01:06:52.947Z,34.8360
2023-03-14T01:07:03.975Z,34.8360
2023-03-14T01:07:15.014Z,34.8310
2023-03-14T01:07:26.229Z,34.8310
2023-03-14T01:07:37.266Z,34.8360
2023-03-14T01:07:48.364Z,34.8140
2023-03-14T01:07:59.382Z,34.8190
2023-03-14T01:08:10.429Z,34.8080
2023-03-14T01:08:21.623Z,34.8020
2023-03-14T01:08:32.785Z,34.7910
2023-03-14T01:08:43.820Z,34.7730
2023-03-14T01:08:54.855Z,34.7680
2023-03-14T01:09:05.897Z,34.7680
2023-03-14T01:09:16.936Z,34.7560
2023-03-14T01:09:28.173Z,34.7510
2023-03-14T01:09:39.339Z,34.7510
2023-03-14T01:09:50.554Z,34.7560
2023-03-14T01:10:01.629Z,34.7510
2023-03-14T01:10:12.686Z,34.7560
2023-03-14T01:10:23.719Z,34.7680
2023-03-14T01:10:34.795Z,34.7710
2023-03-14T01:10:45.910Z,34.7830
2023-03-14T01:10:56.959Z,34.7710
2023-03-14T01:11:07.985Z,34.7680
2023-03-14T01:11:19.208Z,34.7510
2023-03-14T01:11:30.244Z,34.7560
2023-03-14T01:11:41.270Z,34.7560
2023-03-14T01:11:52.458Z,34.7450
2023-03-14T01:12:03.665Z,34.7450
2023-03-14T01:12:14.903Z,34.7230
2023-03-14T01:12:26.072Z,34.7000
2023-03-14T01:12:37.268Z,34.7060
2023-03-14T01:12:48.484Z,34.7230
2023-03-14T01:12:59.656Z,34.7120
2023-03-14T01:13:10.871Z,34.6920
2023-03-14T01:13:22.070Z,34.6920
2023-03-14T01:13:33.103Z,34.6540
2023-03-14T01:13:44.164Z,34.6540
2023-03-14T01:13:55.343Z,34.6710
2023-03-14T01:14:06.540Z,34.6710
2023-03-14T01:14:17.753Z,34.6770
2023-03-14T01:14:28.988Z,34.6650
2023-03-14T01:14:40.156Z,34.6540
2023-03-14T01:14:51.343Z,34.6370
2023-03-14T01:15:02.382Z,34.6080
2023-03-14T01:15:13.436Z,34.5910
2023-03-14T01:15:24.623Z,34.5740
2023-03-14T01:15:35.824Z,34.5520
2023-03-14T01:15:47.061Z,34.5630
2023-03-14T01:15:58.263Z,34.5800
2023-03-14T01:16:09.421Z,34.5970
2023-03-14T01:16:20.815Z,34.5690
2023-03-14T01:16:32.041Z,34.5850
2023-03-14T01:16:43.069Z,34.5630
2023-03-14T01:16:54.219Z,34.5540
2023-03-14T01:17:05.452Z,34.5660
2023-03-14T01:17:16.638Z,34.5730
2023-03-14T01:17:27.712Z,34.5730
2023-03-14T01:17:38.762Z,34.5540
2023-03-14T01:17:49.823Z,34.5490
2023-03-14T01:18:00.875Z,34.5430
2023-03-14T01:18:11.995Z,34.5220
2023-03-14T01:18:23.187Z,34.5110
2023-03-14T01:18:34.378Z,34.5000
2023-03-14T01:18:45.587Z,34.4890
2023-03-14T01:18:56.631Z,34.4950
2023-03-14T01:19:07.663Z,34.4890
2023-03-14T01:19:18.863Z,34.5000
2023-03-14T01:19:30.182Z,34.4950
2023-03-14T01:19:41.313Z,34.4830
2023-03-14T01:19:52.500Z,34.4890
2023-03-14T01:20:03.610Z,34.4890
2023-03-14T01:20:14.868Z,34.5000
2023-03-14T01:20:26.059Z,34.5060
2023-03-14T01:20:37.259Z,34.4950
2023-03-14T01:20:48.468Z,34.4830
2023-03-14T01:20:59.672Z,34.4540
2023-03-14T01:21:10.858Z,34.4610
2023-03-14T01:21:22.068Z,34.4720
2023-03-14T01:21:33.930Z,34.4830
2023-03-14T01:21:45.202Z,34.5000
2023-03-14T01:21:56.263Z,34.4830
2023-03-14T01:22:07.333Z,34.4890
2023-03-14T01:22:18.385Z,34.4670
2023-03-14T01:22:29.425Z,34.4430
2023-03-14T01:22:40.468Z,34.4540
2023-03-14T01:22:51.665Z,34.4610
2023-03-14T01:23:02.700Z,34.4320
2023-03-14T01:23:13.758Z,34.4260
2023-03-14T01:23:24.952Z,34.4090
2023-03-14T01:23:36.154Z,34.4040
2023-03-14T01:23:47.345Z,34.4260
2023-03-14T01:23:58.539Z,34.4370
2023-03-14T01:24:09.738Z,34.4210
2023-03-14T01:24:20.791Z,34.4210
2023-03-14T01:24:31.884Z,34.3980
2023-03-14T01:24:43.029Z,34.4040
2023-03-14T01:24:54.226Z,34.4090
2023-03-14T01:25:05.440Z,34.4210
2023-03-14T01:25:16.629Z,34.4240
2023-03-14T01:25:27.725Z,34.4010
2023-03-14T01:25:38.774Z,34.3950
2023-03-14T01:25:49.822Z,34.3730
2023-03-14T01:26:00.874Z,34.3780
2023-03-14T01:26:11.984Z,34.3730
2023-03-14T01:26:23.187Z,34.3840
2023-03-14T01:26:34.244Z,34.3730
2023-03-14T01:26:45.301Z,34.3670
2023-03-14T01:26:56.460Z,34.3670
2023-03-14T01:27:07.674Z,34.3670
2023-03-14T01:27:18.700Z,34.3500
2023-03-14T01:27:29.756Z,34.3410
2023-03-14T01:27:40.955Z,34.3410
2023-03-14T01:27:52.162Z,34.3410
2023-03-14T01:28:03.365Z,34.3190
2023-03-14T01:28:14.546Z,34.3020
2023-03-14T01:28:25.602Z,34.2890
2023-03-14T01:28:36.645Z,34.2840
2023-03-14T01:28:47.869Z,34.2890
2023-03-14T01:28:59.034Z,34.2840
2023-03-14T01:29:10.227Z,34.2780
2023-03-14T01:29:21.451Z,34.2780
2023-03-14T01:29:32.676Z,34.2840
2023-03-14T01:29:43.834Z,34.2780
2023-03-14T01:29:55.032Z,34.2780
2023-03-14T01:30:06.228Z,34.2780
2023-03-14T01:30:17.432Z,34.2610
2023-03-14T01:30:28.477Z,34.2560
2023-03-14T01:30:39.508Z,34.2560
2023-03-14T01:30:50.711Z,34.2560
2023-03-14T01:31:01.967Z,34.2500
2023-03-14T01:31:13.151Z,34.2500
2023-03-14T01:31:24.360Z,34.2500
2023-03-14T01:31:35.562Z,34.2450
2023-03-14T01:31:46.665Z,34.2330
2023-03-14T01:31:57.727Z,34.2140
2023-03-14T01:32:08.797Z,34.2080
2023-03-14T01:32:20.012Z,34.2080
2023-03-14T01:32:31.070Z,34.2250
2023-03-14T01:32:42.205Z,34.2190
2023-03-14T01:32:53.313Z,34.2190
2023-03-14T01:33:04.484Z,34.2080
2023-03-14T01:33:15.668Z,34.2080
2023-03-14T01:33:26.705Z,34.2250
2023-03-14T01:33:37.756Z,34.2080
2023-03-14T01:33:48.971Z,34.1970
2023-03-14T01:34:00.169Z,34.2020
2023-03-14T01:34:11.355Z,34.1970
2023-03-14T01:34:22.546Z,34.1970
2023-03-14T01:34:33.780Z,34.2360
2023-03-14T01:34:44.836Z,34.2140
2023-03-14T01:34:55.904Z,34.2020
2023-03-14T01:35:07.027Z,34.2080
2023-03-14T01:35:18.219Z,34.2250
2023-03-14T01:35:29.474Z,34.2190
2023-03-14T01:35:40.649Z,34.2190
2023-03-14T01:35:51.896Z,34.2360
2023-03-14T01:36:03.177Z,34.2190
2023-03-14T01:36:14.588Z,34.2190
2023-03-14T01:36:25.761Z,34.1970
2023-03-14T01:36:36.795Z,34.2020
2023-03-14T01:36:47.830Z,34.1800
2023-03-14T01:36:59.038Z,34.1620
2023-03-14T01:37:10.080Z,34.1750
2023-03-14T01:37:21.127Z,34.1560
2023-03-14T01:37:32.307Z,34.1510
2023-03-14T01:37:43.505Z,34.1400
2023-03-14T01:37:54.552Z,34.1430
2023-03-14T01:38:05.590Z,34.1220
2023-03-14T01:38:16.794Z,34.1010
2023-03-14T01:38:27.826Z,34.0900
2023-03-14T01:38:38.909Z,34.0860
2023-03-14T01:38:50.061Z,34.0580
2023-03-14T01:39:01.103Z,34.0520
2023-03-14T01:39:12.168Z,34.0460
2023-03-14T01:39:23.339Z,34.0230
2023-03-14T01:39:34.411Z,34.0290
2023-03-14T01:39:45.467Z,34.0290
2023-03-14T01:39:56.499Z,34.0270
2023-03-14T01:40:07.549Z,34.0240
2023-03-14T01:40:18.730Z,34.0180
2023-03-14T01:40:29.926Z,34.0180
2023-03-14T01:40:41.101Z,34.0070
2023-03-14T01:40:52.307Z,34.0160
2023-03-14T01:41:03.521Z,34.0160
2023-03-14T01:41:14.574Z,34.0050
2023-03-14T01:41:25.631Z,34.0080
2023-03-14T01:41:36.810Z,34.0020
2023-03-14T01:41:47.981Z,34.0080
2023-03-14T01:41:59.186Z,34.0190
2023-03-14T01:42:10.385Z,34.0260
2023-03-14T01:42:21.590Z,34.0230
2023-03-14T01:42:32.804Z,34.0340
2023-03-14T01:42:43.837Z,34.0190
2023-03-14T01:42:54.902Z,34.0020
2023-03-14T01:43:05.939Z,33.9950
2023-03-14T01:43:17.015Z,33.9910
2023-03-14T01:43:28.070Z,33.9850
2023-03-14T01:43:39.131Z,33.9970
2023-03-14T01:43:50.238Z,34.0020
2023-03-14T01:44:01.455Z,33.9800
2023-03-14T01:44:12.627Z,33.9850
2023-03-14T01:44:23.824Z,33.9800
2023-03-14T01:44:35.052Z,33.9710
2023-03-14T01:44:46.240Z,33.9780
2023-03-14T01:44:57.426Z,33.9780
2023-03-14T01:45:08.630Z,33.9780
2023-03-14T01:45:19.847Z,33.9780
2023-03-14T01:45:30.953Z,33.9780
2023-03-14T01:45:42.064Z,33.9780
2023-03-14T01:45:53.158Z,33.9710
2023-03-14T01:46:04.376Z,33.9430
2023-03-14T01:46:15.597Z,33.9430
2023-03-14T01:46:26.717Z,33.9380
2023-03-14T01:46:37.751Z,33.9430
2023-03-14T01:46:48.812Z,33.9550
2023-03-14T01:46:59.986Z,33.9600
2023-03-14T01:47:11.195Z,33.9550
2023-03-14T01:47:22.327Z,33.9430
2023-03-14T01:47:33.347Z,33.9550
2023-03-14T01:47:44.491Z,33.9420
2023-03-14T01:47:55.670Z,33.9470
2023-03-14T01:48:06.746Z,33.9470
2023-03-14T01:48:17.805Z,33.9530
2023-03-14T01:48:28.950Z,33.9530
2023-03-14T01:48:40.150Z,33.9580
2023-03-14T01:48:51.353Z,33.9580
2023-03-14T01:49:02.565Z,33.9530
2023-03-14T01:49:13.760Z,33.9470
2023-03-14T01:49:24.970Z,33.9470
2023-03-14T01:49:36.177Z,33.9420
2023-03-14T01:49:47.226Z,33.9360
2023-03-14T01:49:58.312Z,33.9240
2023-03-14T01:50:09.386Z,33.9300
2023-03-14T01:50:20.466Z,33.9300
2023-03-14T01:50:31.514Z,33.9240
2023-03-14T01:50:42.703Z,33.9120
2023-03-14T01:50:53.755Z,33.9240
2023-03-14T01:51:04.796Z,33.9180
2023-03-14T01:51:15.986Z,33.9010
2023-03-14T01:51:27.182Z,33.8960
2023-03-14T01:51:38.397Z,33.9120
2023-03-14T01:51:49.596Z,33.9070
2023-03-14T01:52:00.795Z,33.9070
2023-03-14T01:52:11.989Z,33.9120
2023-03-14T01:52:23.186Z,33.9180
2023-03-14T01:52:34.386Z,33.9070
2023-03-14T01:52:45.598Z,33.9010
2023-03-14T01:52:56.657Z,33.8850
2023-03-14T01:53:07.703Z,33.8680
2023-03-14T01:53:18.860Z,33.8570
2023-03-14T01:53:30.077Z,33.8680
2023-03-14T01:53:41.286Z,33.8740
2023-03-14T01:53:52.477Z,33.8620
2023-03-14T01:54:03.554Z,33.8680
2023-03-14T01:54:14.579Z,33.8570
2023-03-14T01:54:25.789Z,33.8440
2023-03-14T01:54:36.992Z,33.8680
2023-03-14T01:54:48.168Z,33.8680
2023-03-14T01:54:59.361Z,33.8680
2023-03-14T01:55:10.550Z,33.8620
2023-03-14T01:55:21.757Z,33.8570
2023-03-14T01:55:32.952Z,33.8510
2023-03-14T01:55:44.147Z,33.8440
2023-03-14T01:55:55.350Z,33.8330
2023-03-14T01:56:13.406Z,33.8160
2023-03-14T01:56:24.470Z,34.0280
2023-03-14T01:56:35.668Z,33.9020
2023-03-14T01:56:46.866Z,33.8510
2023-03-14T01:56:57.915Z,33.7890
2023-03-14T01:57:08.974Z,33.7570
2023-03-14T01:57:20.149Z,33.7220
2023-03-14T01:57:31.341Z,33.7160
2023-03-14T01:57:42.400Z,33.7160
2023-03-14T01:57:53.453Z,33.6940
2023-03-14T01:58:04.521Z,33.7000
2023-03-14T01:58:15.591Z,33.7050
2023-03-14T01:58:26.708Z,33.7010
2023-03-14T01:58:37.749Z,33.6960
2023-03-14T01:58:48.792Z,33.6790
2023-03-14T01:58:59.995Z,33.6620
2023-03-14T01:59:11.048Z,33.6350
2023-03-14T01:59:22.082Z,33.6350
2023-03-14T01:59:33.269Z,33.6290
2023-03-14T01:59:44.345Z,33.6350
2023-03-14T01:59:55.402Z,33.6290
2023-03-14T02:00:06.565Z,33.6400
2023-03-14T02:00:17.604Z,33.6170
2023-03-14T02:00:28.640Z,33.6050
2023-03-14T02:00:39.878Z,33.5940
2023-03-14T02:00:50.964Z,33.5870
2023-03-14T02:01:02.100Z,33.5690
2023-03-14T02:01:13.282Z,33.5580
2023-03-14T02:01:24.389Z,33.5510
2023-03-14T02:01:35.502Z,33.5510
2023-03-14T02:01:46.710Z,33.5340
2023-03-14T02:01:57.748Z,33.5160
2023-03-14T02:02:08.811Z,33.5270
2023-03-14T02:02:19.984Z,33.5160
2023-03-14T02:02:31.026Z,33.5050
2023-03-14T02:02:42.065Z,33.5100
2023-03-14T02:02:53.269Z,33.4940
2023-03-14T02:03:04.336Z,33.5050
2023-03-14T02:03:15.436Z,33.5100
2023-03-14T02:03:26.610Z,33.5050
2023-03-14T02:03:37.786Z,33.4990
2023-03-14T02:03:49.087Z,33.5160
2023-03-14T02:04:00.152Z,33.5270
2023-03-14T02:04:11.191Z,33.4940
2023-03-14T02:04:22.268Z,33.4680
2023-03-14T02:04:33.422Z,33.4450
2023-03-14T02:04:44.522Z,33.4360
2023-03-14T02:04:55.599Z,33.4030
2023-03-14T02:05:06.701Z,33.3680
2023-03-14T02:05:17.744Z,33.3500
2023-03-14T02:05:28.788Z,33.3440
2023-03-14T02:05:39.983Z,33.3320
2023-03-14T02:05:51.028Z,33.3440
2023-03-14T02:06:02.074Z,33.3260
2023-03-14T02:06:13.275Z,33.3300
2023-03-14T02:06:24.465Z,33.3300
2023-03-14T02:06:35.694Z,33.3410
2023-03-14T02:06:46.752Z,33.3520
2023-03-14T02:06:57.809Z,33.3520
2023-03-14T02:07:08.955Z,33.3300
2023-03-14T02:07:20.147Z,33.3470
2023-03-14T02:07:31.349Z,33.3470
2023-03-14T02:07:42.556Z,33.3350
2023-03-14T02:07:53.771Z,33.3410
2023-03-14T02:08:04.952Z,33.3350
2023-03-14T02:08:16.171Z,33.3300
2023-03-14T02:08:27.347Z,33.2910
2023-03-14T02:08:38.547Z,33.2620
2023-03-14T02:08:49.762Z,33.2620
2023-03-14T02:09:00.791Z,33.2730
2023-03-14T02:09:11.839Z,33.2910
2023-03-14T02:09:23.042Z,33.2840
2023-03-14T02:09:34.083Z,33.2970
2023-03-14T02:09:45.160Z,33.2790
2023-03-14T02:09:56.322Z,33.2620
2023-03-14T02:10:07.349Z,33.2680
2023-03-14T02:10:18.388Z,33.2570
2023-03-14T02:10:29.581Z,33.2570
2023-03-14T02:10:40.626Z,33.2570
2023-03-14T02:10:51.675Z,33.2340
2023-03-14T02:11:02.866Z,33.2190
2023-03-14T02:11:13.936Z,33.2000
2023-03-14T02:11:25.007Z,33.1770
2023-03-14T02:11:36.142Z,33.1830
2023-03-14T02:11:47.346Z,33.1770
2023-03-14T02:11:58.556Z,33.1880
2023-03-14T02:12:09.752Z,33.1770
2023-03-14T02:12:20.956Z,33.1770
2023-03-14T02:12:32.140Z,33.1770
2023-03-14T02:12:43.345Z,33.1720
2023-03-14T02:12:54.550Z,33.1830
2023-03-14T02:13:05.743Z,33.1880
2023-03-14T02:13:16.803Z,33.1940
2023-03-14T02:13:27.838Z,33.1770
2023-03-14T02:13:39.017Z,33.1830
2023-03-14T02:13:50.220Z,33.1880
2023-03-14T02:14:01.438Z,33.1830
2023-03-14T02:14:12.646Z,33.1610
2023-03-14T02:14:23.698Z,33.1390
2023-03-14T02:14:34.715Z,33.1440
2023-03-14T02:14:45.934Z,33.1260
2023-03-14T02:14:56.973Z,33.1150
2023-03-14T02:15:08.044Z,33.1150